Time;durP1;ratioP1;P1;durP2;ratioP2;P2;SDS_P1;SDS_P2;PMS_P1;PMS_P2;Temp;Humidity;BMP_temperature;BMP_pressure;BME280_temperature;BME280_humidity;BME280_pressure;Samples;Min_cycle;Max_cycle;Signal;HPM_P1;HPM_P2
2021/12/11 00:01:39;;;;;;;6.53;5.93;;;;;;;18.12;43.56;99723.88;5053692;28;20056;-83
2021/12/11 00:04:13;;;;;;;6.75;6.05;;;;;;;18.13;43.50;99730.91;5052259;28;20080;-84
2021/12/11 00:06:45;;;;;;;6.82;6.20;;;;;;;18.14;43.33;99731.72;5054186;28;20049;-85
2021/12/11 00:09:27;;;;;;;6.72;5.97;;;;;;;18.13;43.21;99727.38;5053877;28;20397;-84
2021/12/11 00:12:13;;;;;;;6.75;5.50;;;;;;;18.13;43.29;99728.22;5052780;28;20045;-84
2021/12/11 00:14:45;;;;;;;6.55;5.75;;;;;;;18.13;43.19;99736.25;5053859;28;20052;-85
2021/12/11 00:17:23;;;;;;;6.47;5.85;;;;;;;18.13;43.02;99738.94;5053876;28;20052;-85
2021/12/11 00:19:51;;;;;;;6.07;5.47;;;;;;;18.13;43.09;99736.25;5053443;28;20037;-85
2021/12/11 00:22:22;;;;;;;6.72;5.65;;;;;;;18.13;43.09;99733.56;5053662;28;20056;-83
2021/12/11 00:24:51;;;;;;;6.18;5.55;;;;;;;18.14;43.11;99727.22;5053516;28;20052;-83
2021/12/11 00:27:28;;;;;;;5.97;5.38;;;;;;;18.14;43.18;99727.22;5052403;28;20052;-84
2021/12/11 00:29:56;;;;;;;6.65;5.95;;;;;;;18.14;43.12;99729.06;5051921;28;20489;-84
2021/12/11 00:32:28;;;;;;;6.10;5.50;;;;;;;18.15;43.05;99731.59;5053500;28;20418;-84
2021/12/11 00:35:20;;;;;;;6.22;5.60;;;;;;;18.15;42.98;99730.72;5052369;28;20052;-83
2021/12/11 00:37:49;;;;;;;6.40;5.80;;;;;;;18.16;43.19;99741.31;5053200;28;20051;-83
2021/12/11 00:40:24;;;;;;;6.63;6.03;;;;;;;18.17;42.93;99743.00;5052274;28;20058;-84
2021/12/11 00:42:58;;;;;;;7.13;5.60;;;;;;;18.17;43.08;99739.47;5053262;28;20396;-84
2021/12/11 00:45:28;;;;;;;5.82;5.32;;;;;;;18.18;42.79;99747.34;5052936;28;20056;-83
2021/12/11 00:48:09;;;;;;;6.25;5.65;;;;;;;18.19;42.84;99750.88;5053261;28;20052;-84
2021/12/11 00:50:48;;;;;;;6.20;5.60;;;;;;;18.20;42.82;99758.78;5053064;28;20033;-83
2021/12/11 00:53:24;;;;;;;5.78;5.25;;;;;;;18.20;42.64;99756.09;5053143;28;20056;-83
2021/12/11 00:55:55;;;;;;;6.82;5.25;;;;;;;18.21;42.57;99756.94;5052576;28;20365;-83
2021/12/11 00:58:26;;;;;;;8.88;5.18;;;;;;;18.22;42.62;99762.13;5051720;28;20064;-83
2021/12/11 01:00:54;;;;;;;6.30;5.00;;;;;;;18.22;42.54;99762.13;5052767;28;20041;-84
2021/12/11 01:03:30;;;;;;;5.78;5.20;;;;;;;18.23;42.46;99758.47;5052791;28;20071;-83
2021/12/11 01:06:00;;;;;;;5.78;5.18;;;;;;;18.23;42.52;99758.47;5053021;28;20492;-84
2021/12/11 01:08:34;;;;;;;5.78;4.70;;;;;;;18.24;42.41;99753.97;5052721;28;20049;-83
2021/12/11 01:11:22;;;;;;;5.22;4.72;;;;;;;18.25;42.48;99752.97;5051985;28;20053;-83
2021/12/11 01:14:07;;;;;;;5.75;5.15;;;;;;;18.26;42.45;99746.59;5052759;28;20052;-83
2021/12/11 01:16:37;;;;;;;5.90;5.15;;;;;;;18.25;42.36;99744.94;5052831;28;20481;-83
2021/12/11 01:19:05;;;;;;;5.20;4.47;;;;;;;18.26;42.47;99750.13;5052705;28;20052;-83
2021/12/11 01:24:27;;;;;;;5.22;4.80;;;;;;;18.26;42.37;99763.50;5052598;28;20052;-82
2021/12/11 01:27:00;;;;;;;5.18;4.68;;;;;;;18.27;42.52;99767.91;5052828;28;20045;-83
2021/12/11 01:29:29;;;;;;;5.32;4.75;;;;;;;18.28;42.39;99766.91;5053346;28;20052;-83
2021/12/11 01:31:57;;;;;;;5.07;4.40;;;;;;;18.28;42.42;99764.22;5052154;28;20049;-83
2021/12/11 01:34:27;;;;;;;5.32;4.80;;;;;;;18.28;42.62;99760.72;5052505;28;20037;-83
2021/12/11 01:36:56;;;;;;;5.97;4.65;;;;;;;18.27;42.38;99759.88;5052707;28;20044;-83
2021/12/11 01:39:31;;;;;;;5.30;4.80;;;;;;;18.28;42.56;99766.06;5051008;28;20045;-83
2021/12/11 01:42:05;;;;;;;6.28;5.07;;;;;;;18.26;42.46;99752.81;5052397;28;20064;-83
2021/12/11 01:44:36;;;;;;;5.43;4.70;;;;;;;18.28;42.50;99768.75;5050979;28;20049;-83
2021/12/11 01:47:10;;;;;;;5.78;5.28;;;;;;;18.27;42.52;99754.50;5052410;28;20052;-83
2021/12/11 01:49:41;;;;;;;5.40;4.80;;;;;;;18.27;42.76;99759.88;5053333;28;20045;-83
2021/12/11 01:52:19;;;;;;;5.63;4.68;;;;;;;18.27;42.52;99757.19;5053144;28;20049;-83
2021/12/11 01:54:49;;;;;;;5.03;4.53;;;;;;;18.26;42.56;99760.84;5051294;28;20049;-83
2021/12/11 01:57:24;;;;;;;5.35;4.75;;;;;;;18.27;42.47;99759.00;5052745;28;20484;-83
2021/12/11 01:59:57;;;;;;;6.95;4.57;;;;;;;18.25;42.57;99761.84;5052573;28;20053;-83
2021/12/11 02:02:38;;;;;;;6.85;4.82;;;;;;;18.25;42.39;99761.84;5052401;28;20070;-82
2021/12/11 02:05:11;;;;;;;5.22;4.57;;;;;;;18.24;42.54;99762.84;5051163;28;20049;-82
2021/12/11 02:07:46;;;;;;;5.45;4.90;;;;;;;18.23;42.41;99774.56;5051874;28;20057;-83
2021/12/11 02:10:41;;;;;;;5.03;4.53;;;;;;;18.23;42.45;99784.41;5054514;28;20056;-82
2021/12/11 02:13:15;;;;;;;5.95;4.25;;;;;;;18.23;42.42;99781.72;5055746;28;20045;-83
2021/12/11 02:15:49;;;;;;;6.40;4.70;;;;;;;18.22;42.42;99788.91;5054557;28;20045;-82
2021/12/11 02:18:27;;;;;;;4.90;4.28;;;;;;;18.21;42.40;99789.91;5054330;28;20053;-82
2021/12/11 02:21:08;;;;;;;5.70;4.10;;;;;;;18.22;42.39;99788.09;5055594;28;20049;-83
2021/12/11 02:23:36;;;;;;;5.47;4.95;;;;;;;18.21;42.41;99792.59;5054598;28;20049;-83
2021/12/11 02:26:17;;;;;;;5.15;4.38;;;;;;;18.21;42.26;99791.75;5055703;28;20048;-83
2021/12/11 02:28:51;;;;;;;6.18;4.60;;;;;;;18.20;42.41;99787.41;5055572;28;20053;-83
2021/12/11 02:31:33;;;;;;;5.47;3.70;;;;;;;18.20;42.46;99782.03;5056131;28;20465;-83
2021/12/11 02:34:08;;;;;;;4.55;4.15;;;;;;;18.19;42.45;99778.53;5053491;28;20053;-83
2021/12/11 02:36:59;;;;;;;5.00;4.50;;;;;;;18.19;42.49;99780.34;5055513;28;20489;-83
2021/12/11 02:39:31;;;;;;;4.85;3.83;;;;;;;18.19;42.40;99774.97;5054949;28;20052;-83
2021/12/11 02:42:01;;;;;;;7.53;4.00;;;;;;;18.19;42.27;99788.38;5053889;28;20061;-83
2021/12/11 02:44:29;;;;;;;4.80;4.15;;;;;;;18.18;42.28;99787.53;5055059;28;20285;-84
2021/12/11 02:47:15;;;;;;;5.75;3.92;;;;;;;18.18;42.27;99782.19;5055120;28;20041;-82
2021/12/11 02:49:52;;;;;;;4.88;4.15;;;;;;;18.19;42.32;99794.59;5055326;28;20068;-83
2021/12/11 02:52:31;;;;;;;5.22;4.15;;;;;;;18.18;42.35;99795.56;5055008;28;20049;-84
2021/12/11 02:55:03;;;;;;;4.75;4.10;;;;;;;18.19;42.28;99791.91;5055198;28;20052;-83
2021/12/11 02:57:38;;;;;;;6.55;4.00;;;;;;;18.20;42.28;99790.91;5055078;28;20045;-83
2021/12/11 03:00:16;;;;;;;4.68;4.15;;;;;;;18.21;42.30;99786.41;5055136;28;20468;-83
2021/12/11 03:02:49;;;;;;;4.50;4.07;;;;;;;18.21;42.29;99800.63;5055264;28;20048;-83
2021/12/11 03:05:22;;;;;;;4.80;3.65;;;;;;;18.21;42.36;99797.97;5055403;28;20370;-83
2021/12/11 03:07:52;;;;;;;;;;;;;;;18.20;42.26;99804.31;5054083;28;20049;-83
2021/12/11 03:10:25;;;;;;;6.20;3.67;;;;;;;18.20;42.22;99812.34;5054854;28;19928;-83
2021/12/11 03:12:54;;;;;;;4.45;3.80;;;;;;;18.19;42.28;99810.66;5054735;28;20059;-83
2021/12/11 03:15:22;;;;;;;4.20;3.80;;;;;;;18.20;42.32;99816.88;5054694;28;20056;-83
2021/12/11 03:17:50;;;;;;;4.10;3.40;;;;;;;18.19;42.15;99810.66;5054494;28;20484;-83
2021/12/11 03:20:20;;;;;;;6.47;4.20;;;;;;;18.19;42.16;99809.81;5053068;28;20053;-84
2021/12/11 03:22:49;;;;;;;4.85;4.10;;;;;;;18.19;42.45;99809.81;5054201;28;20048;-84
2021/12/11 03:25:23;;;;;;;5.22;3.95;;;;;;;18.18;42.32;99803.59;5054445;28;20041;-84
2021/12/11 03:27:51;;;;;;;4.75;3.88;;;;;;;18.18;42.38;99803.59;5054349;28;20104;-84
2021/12/11 03:30:25;;;;;;;4.55;3.58;;;;;;;18.18;42.27;99814.31;5054562;28;20037;-83
2021/12/11 03:32:57;;;;;;;4.15;3.75;;;;;;;18.17;42.13;99807.28;5054535;28;20357;-83
2021/12/11 03:35:26;;;;;;;5.80;3.58;;;;;;;18.17;42.21;99803.75;5054229;28;20041;-84
2021/12/11 03:37:55;;;;;;;5.20;3.97;;;;;;;18.17;42.33;99811.81;5054678;28;20048;-84
2021/12/11 03:40:23;;;;;;;3.88;3.47;;;;;;;18.17;42.21;99809.13;5052652;28;20049;-83
2021/12/11 03:42:53;;;;;;;4.20;3.80;;;;;;;18.16;42.17;99802.94;5054227;28;20045;-83
2021/12/11 03:45:26;;;;;;;4.38;3.75;;;;;;;18.17;42.26;99819.84;5052278;28;20045;-83
2021/12/11 03:47:58;;;;;;;4.53;4.07;;;;;;;18.16;42.27;99818.16;5054116;28;20044;-83
2021/12/11 03:50:29;;;;;;;8.27;3.70;;;;;;;18.16;42.21;99824.34;5053945;28;20056;-83
2021/12/11 03:52:57;;;;;;;4.38;3.58;;;;;;;18.16;42.32;99832.41;5053933;28;20056;-84
2021/12/11 03:55:33;;;;;;;5.45;3.92;;;;;;;18.15;42.17;99828.03;5053977;28;20055;-83
2021/12/11 03:58:01;;;;;;;4.97;3.78;;;;;;;18.15;42.23;99833.41;5053940;28;20045;-81
2021/12/11 04:00:56;;;;;;;4.13;3.60;;;;;;;18.15;42.27;99830.72;5053600;28;20041;-82
2021/12/11 04:03:29;;;;;;;5.68;3.75;;;;;;;18.15;42.35;99832.53;5054331;28;20511;-82
2021/12/11 04:06:00;;;;;;;4.38;3.97;;;;;;;18.14;42.27;99842.41;5054235;28;20052;-82
2021/12/11 04:08:34;;;;;;;4.90;4.00;;;;;;;18.14;42.28;99844.22;5052777;28;20076;-82
2021/12/11 04:11:01;;;;;;;3.80;3.22;;;;;;;18.13;42.29;99832.69;5053741;28;20052;-82
2021/12/11 04:13:29;;;;;;;4.38;3.65;;;;;;;18.14;42.34;99847.75;5054294;28;20049;-81
2021/12/11 04:15:56;;;;;;;4.13;3.72;;;;;;;18.14;42.23;99849.59;5052610;28;20508;-81
2021/12/11 04:18:24;;;;;;;4.65;3.63;;;;;;;18.14;42.34;99861.16;5053505;28;20056;-81
2021/12/11 04:20:52;;;;;;;4.70;3.67;;;;;;;18.14;42.39;99865.66;5052322;28;20056;-82
2021/12/11 04:23:20;;;;;;;4.68;4.15;;;;;;;18.13;42.33;99859.47;5053378;28;20405;-82
2021/12/11 04:25:51;;;;;;;4.55;3.75;;;;;;;18.13;42.23;99864.81;5053069;28;20072;-81
2021/12/11 04:28:21;;;;;;;5.35;3.63;;;;;;;18.12;42.48;99865.81;5053183;28;20044;-81
2021/12/11 04:30:54;;;;;;;4.13;3.60;;;;;;;18.12;42.38;99868.50;5052882;28;20052;-81
2021/12/11 04:33:22;;;;;;;4.68;3.80;;;;;;;18.12;42.46;99865.81;5053182;28;20060;-81
2021/12/11 04:35:49;;;;;;;4.50;3.53;;;;;;;18.12;42.47;99865.00;5051679;28;20132;-81
2021/12/11 04:38:17;;;;;;;3.67;3.30;;;;;;;18.11;42.50;99874.00;5053059;28;20045;-82
2021/12/11 04:40:51;;;;;;;4.05;3.45;;;;;;;18.11;42.51;99888.25;5052806;28;20136;-83
2021/12/11 04:43:21;;;;;;;3.78;3.33;;;;;;;18.11;42.54;99885.56;5053148;28;20049;-84
2021/12/11 04:45:59;;;;;;;4.25;3.42;;;;;;;18.11;42.48;99893.59;5052976;28;20045;-82
2021/12/11 04:48:42;;;;;;;4.35;3.30;;;;;;;18.10;42.70;99894.56;5053454;28;20056;-83
2021/12/11 04:51:26;;;;;;;4.35;3.30;;;;;;;18.09;42.94;99892.91;5053095;28;20056;-83
2021/12/11 05:10:05;;;;;;;3.92;3.20;;;;;;;18.08;42.83;99909.13;5052743;28;20049;-84
2021/12/11 05:12:35;;;;;;;3.80;3.22;;;;;;;18.06;43.01;99908.41;5052746;28;20048;-84
2021/12/11 05:15:16;;;;;;;6.05;3.30;;;;;;;18.05;42.65;99912.94;5052959;28;20049;-84
2021/12/11 05:17:44;;;;;;;3.92;3.30;;;;;;;18.06;42.88;99908.41;5053231;28;20056;-83
2021/12/11 05:20:13;;;;;;;3.42;2.90;;;;;;;18.04;42.77;99913.94;5052626;28;20408;-85
2021/12/11 05:22:41;;;;;;;4.65;3.20;;;;;;;18.04;42.68;99916.59;5052861;28;20052;-83
2021/12/11 05:25:10;;;;;;;3.63;3.25;;;;;;;18.05;42.68;99923.63;5052641;28;20045;-86
2021/12/11 05:27:39;;;;;;;4.45;3.03;;;;;;;18.04;42.70;99925.47;5052548;28;20049;-85
2021/12/11 05:30:15;;;;;;;4.55;2.97;;;;;;;18.03;42.70;99928.31;5052620;28;20480;-84
2021/12/11 05:32:43;;;;;;;4.70;2.92;;;;;;;18.03;42.65;99934.50;5053121;28;20472;-85
2021/12/11 05:35:11;;;;;;;4.00;2.97;;;;;;;18.04;42.63;99940.72;5052220;28;20037;-84
2021/12/11 05:37:39;;;;;;;4.15;3.08;;;;;;;18.04;42.67;99936.19;5052406;28;20048;-85
2021/12/11 05:40:08;;;;;;;4.45;2.45;;;;;;;18.06;42.63;99936.03;5052455;28;20040;-85
2021/12/11 05:42:36;;;;;;;5.70;2.78;;;;;;;18.06;42.64;99933.34;5054781;28;20049;-85
2021/12/11 05:45:04;;;;;;;3.17;2.38;;;;;;;18.08;42.61;99942.09;5038486;28;20049;-86
2021/12/11 05:47:33;;;;;;;3.65;2.85;;;;;;;18.08;42.58;99935.91;5056295;28;20044;-84
2021/12/11 05:50:00;;;;;;;4.88;2.97;;;;;;;18.08;42.55;99939.44;5055090;28;20432;-84
2021/12/11 05:52:28;;;;;;;2.95;2.42;;;;;;;18.08;42.58;99944.78;5056718;28;20048;-84
2021/12/11 05:54:56;;;;;;;3.45;2.83;;;;;;;18.08;42.54;99951.97;5056220;28;20397;-84
2021/12/11 05:57:26;;;;;;;3.20;2.45;;;;;;;18.07;42.45;99956.50;5056231;28;20045;-84
2021/12/11 05:59:53;;;;;;;3.95;3.03;;;;;;;18.08;42.50;99951.97;5054867;28;20075;-84
2021/12/11 06:02:26;;;;;;;3.30;2.50;;;;;;;18.08;42.42;99954.66;5056165;28;20052;-84
2021/12/11 06:04:55;;;;;;;;;;;;;;;18.07;42.35;99950.25;5056932;28;20045;-84
2021/12/11 06:07:25;;;;;;;3.90;2.58;;;;;;;18.07;42.43;99958.31;5056042;28;19928;-84
2021/12/11 06:09:58;;;;;;;3.22;2.75;;;;;;;18.06;42.46;99954.78;5054945;28;20412;-84
2021/12/11 06:12:26;;;;;;;;;;;;;;;18.06;42.43;99961.97;5055134;28;20053;-83
2021/12/11 06:14:54;;;;;;;3.13;2.22;;;;;;;18.06;42.46;99957.47;5055864;28;19921;-82
2021/12/11 06:17:28;;;;;;;2.90;2.17;;;;;;;18.06;42.71;99952.09;5055773;28;20048;-84
2021/12/11 06:19:57;;;;;;;3.33;2.60;;;;;;;18.05;42.51;99958.47;5056206;28;20049;-84
2021/12/11 06:22:29;;;;;;;3.42;2.08;;;;;;;18.06;42.54;99964.66;5055447;28;20048;-84
2021/12/11 06:24:59;;;;;;;3.35;2.15;;;;;;;18.05;42.58;99963.81;5055773;28;20057;-85
2021/12/11 06:27:28;;;;;;;4.65;2.10;;;;;;;18.04;42.62;99971.00;5055428;28;20411;-85
2021/12/11 06:29:55;;;;;;;3.58;2.30;;;;;;;18.04;42.33;99967.50;5055430;28;20049;-85
2021/12/11 06:32:24;;;;;;;3.10;2.40;;;;;;;18.03;42.57;99968.47;5055627;28;20045;-85
2021/12/11 06:34:54;;;;;;;2.72;2.17;;;;;;;18.03;42.63;99971.16;5055249;28;20410;-84
2021/12/11 06:37:22;;;;;;;3.25;2.17;;;;;;;18.04;42.59;99970.16;5054743;28;20051;-84
2021/12/11 06:39:51;;;;;;;3.08;2.25;;;;;;;18.03;42.58;99976.53;5055480;28;20075;-83
2021/12/11 06:42:20;;;;;;;2.55;2.10;;;;;;;18.03;42.65;99981.88;5055074;28;20053;-84
2021/12/11 06:44:50;;;;;;;5.43;2.13;;;;;;;18.01;42.76;99982.00;5055611;28;20044;-85
2021/12/11 06:47:18;;;;;;;2.83;2.10;;;;;;;18.02;42.80;99985.53;5055890;28;20052;-86
2021/12/11 06:49:46;;;;;;;3.38;1.88;;;;;;;17.99;42.79;99992.03;5055242;28;20052;-86
2021/12/11 06:52:19;;;;;;;2.55;2.05;;;;;;;18.01;42.73;99991.88;5055632;28;20045;-86
2021/12/11 06:54:48;;;;;;;3.80;2.38;;;;;;;17.99;42.74;100000.06;5054613;28;20120;-87
2021/12/11 06:57:17;;;;;;;2.90;2.17;;;;;;;18.00;42.76;100004.41;5053732;28;20045;-86
2021/12/11 06:59:46;;;;;;;2.50;1.98;;;;;;;18.00;42.70;100003.59;5054780;28;20052;-87
2021/12/11 07:02:17;;;;;;;3.53;1.77;;;;;;;17.99;42.59;100005.41;5054921;28;20045;-85
2021/12/11 07:04:45;;;;;;;2.90;2.08;;;;;;;17.99;42.78;100016.13;5055235;28;20044;-84
2021/12/11 07:07:19;;;;;;;2.90;2.30;;;;;;;17.99;42.54;100017.97;5054681;28;20056;-84
2021/12/11 07:09:48;;;;;;;3.00;2.53;;;;;;;17.99;42.73;100017.97;5053516;28;20059;-84
2021/12/11 07:12:16;;;;;;;3.08;2.30;;;;;;;17.98;42.60;100027.81;5054088;28;20049;-84
2021/12/11 07:14:43;;;;;;;3.55;1.85;;;;;;;17.98;42.62;100037.69;5054514;28;20044;-84
2021/12/11 07:17:11;;;;;;;2.70;2.15;;;;;;;17.97;42.61;100044.88;5054817;28;20041;-83
2021/12/11 07:19:39;;;;;;;3.80;2.38;;;;;;;17.96;42.75;100045.03;5036734;28;20052;-83
2021/12/11 07:22:09;;;;;;;3.38;1.60;;;;;;;17.97;42.67;100052.06;5054745;28;20369;-83
2021/12/11 07:24:44;;;;;;;2.88;2.15;;;;;;;17.96;42.50;100059.25;5053527;28;20045;-83
2021/12/11 07:27:12;;;;;;;2.88;1.98;;;;;;;17.96;42.52;100064.63;5054951;28;20044;-83
2021/12/11 07:29:40;;;;;;;2.67;1.77;;;;;;;17.96;42.59;100072.66;5054743;28;20048;-83
2021/12/11 07:32:08;;;;;;;2.63;1.70;;;;;;;17.96;42.52;100078.00;5054681;28;20048;-84
2021/12/11 07:34:36;;;;;;;2.85;2.15;;;;;;;17.95;42.57;100076.31;5054677;28;20492;-84
2021/12/11 07:37:04;;;;;;;2.85;2.00;;;;;;;17.95;42.57;100091.53;5053069;28;20047;-84
2021/12/11 07:39:31;;;;;;;2.75;2.17;;;;;;;17.95;42.47;100094.22;5055050;28;20041;-84
2021/12/11 07:42:00;;;;;;;2.75;1.88;;;;;;;17.94;42.56;100104.06;5054081;28;20052;-85
2021/12/11 07:44:34;;;;;;;3.10;1.88;;;;;;;17.93;42.65;100105.06;5054458;28;20047;-83
2021/12/11 07:47:03;;;;;;;2.67;2.08;;;;;;;17.93;42.62;100109.56;5055013;28;20040;-84
2021/12/11 07:49:30;;;;;;;3.00;1.95;;;;;;;17.92;42.69;100124.78;5054196;28;20404;-84
2021/12/11 07:51:58;;;;;;;2.65;1.90;;;;;;;17.93;42.67;100133.66;5055649;28;20480;-84
2021/12/11 07:54:25;;;;;;;2.42;1.63;;;;;;;17.93;42.67;100141.69;5054621;28;20057;-84
2021/12/11 07:56:54;;;;;;;3.10;2.10;;;;;;;17.93;42.54;100147.06;5054098;28;20049;-83
2021/12/11 07:59:22;;;;;;;3.00;1.85;;;;;;;17.93;42.58;100147.91;5053931;28;20393;-83
2021/12/11 08:01:52;;;;;;;3.40;2.25;;;;;;;17.94;42.43;100165.66;5053708;28;20506;-83
2021/12/11 08:04:21;;;;;;;2.65;1.92;;;;;;;17.94;42.49;100162.97;5054186;28;20436;-83
2021/12/11 08:06:50;;;;;;;2.70;2.10;;;;;;;17.94;42.54;100162.13;5054351;28;20044;-83
2021/12/11 08:09:20;;;;;;;3.25;2.00;;;;;;;17.94;42.32;100165.66;5054533;28;20050;-85
2021/12/11 08:11:48;;;;;;;2.80;2.00;;;;;;;17.94;42.45;100176.38;5053861;28;20049;-85
2021/12/11 08:14:20;;;;;;;4.07;2.20;;;;;;;17.94;42.31;100187.06;5055226;28;20416;-85
2021/12/11 08:16:49;;;;;;;2.58;1.83;;;;;;;17.95;42.33;100198.66;5053654;28;20049;-84
2021/12/11 08:19:22;;;;;;;2.95;2.10;;;;;;;17.95;42.27;100199.50;5055084;28;20044;-84
2021/12/11 08:21:53;;;;;;;3.47;2.35;;;;;;;17.95;42.33;100201.34;5053471;28;20057;-85
2021/12/11 08:24:21;;;;;;;3.28;2.10;;;;;;;17.96;42.35;100211.06;5053637;28;20056;-83
2021/12/11 08:26:51;;;;;;;2.78;2.10;;;;;;;17.97;42.29;100215.44;5053419;28;20049;-84
2021/12/11 08:29:20;;;;;;;3.00;2.08;;;;;;;17.97;42.15;100213.59;5053658;28;20049;-83
2021/12/11 08:31:51;;;;;;;4.15;2.40;;;;;;;17.99;42.16;100224.19;5052953;28;20041;-84
2021/12/11 08:34:19;;;;;;;3.00;2.13;;;;;;;18.01;42.22;100230.22;5052326;28;20051;-84
2021/12/11 08:36:49;;;;;;;2.88;2.00;;;;;;;18.01;42.18;100232.91;5053425;28;20048;-84
2021/12/11 08:39:17;;;;;;;3.20;2.15;;;;;;;18.00;42.14;100229.38;5051625;28;20489;-84
2021/12/11 08:41:48;;;;;;;3.03;2.35;;;;;;;18.01;42.15;100227.56;5053455;28;20049;-84
2021/12/11 08:44:17;;;;;;;2.58;1.90;;;;;;;18.01;42.13;100240.94;5054202;28;20040;-84
2021/12/11 08:46:52;;;;;;;3.83;1.80;;;;;;;18.01;42.23;100241.78;5054513;28;20493;-84
2021/12/11 08:49:27;;;;;;;2.70;2.20;;;;;;;18.01;42.14;100248.97;5053731;28;20048;-83
2021/12/11 08:52:00;;;;;;;4.15;2.00;;;;;;;18.01;42.11;100257.03;5053887;28;20041;-85
2021/12/11 08:54:29;;;;;;;3.50;1.98;;;;;;;18.01;42.05;100259.69;5054292;28;20093;-83
2021/12/11 08:57:00;;;;;;;2.67;2.00;;;;;;;18.00;42.28;100268.72;5053530;28;20041;-84
2021/12/11 08:59:30;;;;;;;3.13;2.00;;;;;;;17.99;42.42;100270.56;5053006;28;20044;-84
2021/12/11 09:02:09;;;;;;;4.78;2.67;;;;;;;17.98;42.64;100289.41;5053588;28;20384;-82
2021/12/11 09:04:54;;;;;;;2.70;1.95;;;;;;;17.98;42.49;100294.78;5053619;28;20049;-84
2021/12/11 09:07:36;;;;;;;2.83;2.03;;;;;;;17.97;42.17;100295.78;5052034;28;20060;-84
2021/12/11 09:10:16;;;;;;;2.53;1.75;;;;;;;17.97;42.39;100303.81;5052711;28;20503;-83
2021/12/11 09:12:49;;;;;;;2.80;1.90;;;;;;;17.98;42.33;100302.81;5053615;28;20041;-82
2021/12/11 09:15:32;;;;;;;4.72;2.25;;;;;;;17.95;43.52;100314.66;5053608;28;20056;-84
2021/12/11 09:18:07;;;;;;;2.42;1.90;;;;;;;17.92;43.69;100316.75;5057148;28;20469;-84
2021/12/11 09:20:58;;;;;;;4.97;2.40;;;;;;;17.86;42.36;100328.84;5057777;28;20049;-88
2021/12/11 09:23:31;;;;;;;5.53;1.98;;;;;;;17.84;43.09;100336.19;5057119;28;20056;-84
2021/12/11 09:26:09;;;;;;;4.35;2.10;;;;;;;17.83;42.75;100329.13;5057711;28;20049;-88
2021/12/11 09:28:48;;;;;;;3.55;1.85;;;;;;;17.82;42.89;100334.59;5057994;28;20094;-88
2021/12/11 09:31:21;;;;;;;2.78;1.85;;;;;;;17.84;42.83;100340.69;5057182;28;20079;-88
2021/12/11 09:33:54;;;;;;;4.13;2.30;;;;;;;17.83;42.87;100345.19;5056947;28;20053;-87
2021/12/11 09:36:30;;;;;;;3.20;1.80;;;;;;;17.82;42.91;100354.19;5058166;28;20060;-89
2021/12/11 09:42:34;;;;;;;2.60;1.90;;;;;;;17.82;42.97;100356.03;5035963;28;20053;-85
2021/12/11 09:45:13;;;;;;;2.88;1.83;;;;;;;17.82;42.88;100356.88;5037305;28;20056;-86
2021/12/11 09:47:50;;;;;;;3.47;2.00;;;;;;;17.82;42.95;100342.63;5037648;28;20053;-86
2021/12/11 09:50:34;;;;;;;3.33;2.20;;;;;;;17.83;43.06;100352.38;5037836;28;20508;-85
2021/12/11 09:53:02;;;;;;;3.83;2.17;;;;;;;17.83;43.07;100353.22;5035291;28;20045;-86
2021/12/11 09:55:37;;;;;;;3.13;1.90;;;;;;;17.85;43.27;100350.41;5036651;28;20061;-86
2021/12/11 09:58:14;;;;;;;4.78;2.00;;;;;;;17.86;43.12;100360.13;5037704;28;20050;-86
2021/12/11 10:00:49;;;;;;;3.88;2.25;;;;;;;17.84;43.03;100362.94;5036201;28;20056;-87
2021/12/11 10:03:23;;;;;;;7.03;2.08;;;;;;;17.85;43.03;100369.16;5037201;28;20052;-85
2021/12/11 10:06:00;;;;;;;3.42;2.20;;;;;;;17.87;43.08;100370.72;5037297;28;20046;-86
2021/12/11 10:08:37;;;;;;;5.10;2.15;;;;;;;17.88;43.14;100371.56;5051766;28;20045;-87
2021/12/11 10:11:22;;;;;;;3.53;2.22;;;;;;;17.90;42.99;100362.41;5036723;28;20056;-87
2021/12/11 10:14:07;;;;;;;6.18;1.95;;;;;;;17.93;43.07;100361.28;5037459;28;20042;-88
2021/12/11 10:16:41;;;;;;;3.35;1.75;;;;;;;17.98;42.62;100378.66;5050499;28;20401;-87
2021/12/11 10:19:11;;;;;;;4.38;2.67;;;;;;;17.96;39.08;100377.94;5035912;28;20072;-89
2021/12/11 10:21:46;;;;;;;3.72;3.30;;;;;;;17.85;35.51;100377.19;5036839;28;20041;-89
2021/12/11 10:24:18;;;;;;;3.63;2.95;;;;;;;17.73;35.43;100381.72;5037837;28;20041;-89
2021/12/11 10:26:46;;;;;;;4.80;2.92;;;;;;;17.65;37.27;100385.06;5037193;28;20049;-87
2021/12/11 10:29:14;;;;;;;3.67;2.30;;;;;;;17.64;40.17;100386.06;5035065;28;20052;-86
2021/12/11 10:31:47;;;;;;;2.92;1.95;;;;;;;17.63;39.81;100391.56;5037177;28;20049;-84
2021/12/11 10:34:23;;;;;;;4.60;2.38;;;;;;;17.64;39.86;100399.44;5036896;28;20508;-86
2021/12/11 10:37:00;;;;;;;3.60;2.00;;;;;;;17.67;40.69;100395.66;5035608;28;20402;-86
2021/12/11 10:39:29;;;;;;;4.70;2.30;;;;;;;17.67;40.93;100393.84;5036556;28;20086;-85
2021/12/11 10:41:57;;;;;;;2.65;1.67;;;;;;;17.69;40.99;100396.38;5054873;28;20408;-83
2021/12/11 10:44:29;;;;;;;4.53;2.03;;;;;;;17.70;40.58;100398.94;5056306;28;20049;-84
2021/12/11 10:47:02;;;;;;;3.67;1.50;;;;;;;17.72;40.45;100402.31;5070824;28;20408;-83
2021/12/11 10:49:31;;;;;;;2.65;1.90;;;;;;;17.71;40.47;100389.91;5055267;28;20049;-84
2021/12/11 10:52:06;;;;;;;2.67;1.90;;;;;;;17.74;40.56;100399.50;5054302;28;20049;-84
2021/12/11 10:54:34;;;;;;;2.75;1.80;;;;;;;17.75;40.73;100401.25;5056283;28;20041;-85
2021/12/11 10:57:02;;;;;;;2.35;1.73;;;;;;;17.77;40.60;100404.63;5056622;28;20075;-84
2021/12/11 10:59:32;;;;;;;2.15;1.67;;;;;;;17.77;40.68;100404.63;5055895;28;20048;-85
2021/12/11 11:02:00;;;;;;;2.65;1.65;;;;;;;17.77;40.76;100404.63;5055106;28;20053;-83
2021/12/11 11:04:33;;;;;;;4.15;1.90;;;;;;;17.77;40.82;100404.63;5055358;28;20376;-85
2021/12/11 11:07:01;;;;;;;2.38;1.42;;;;;;;17.77;40.90;100409.97;5054192;28;20048;-81
2021/12/11 11:09:29;;;;;;;4.28;1.92;;;;;;;17.77;40.87;100410.81;5056876;28;20067;-82
2021/12/11 11:12:00;;;;;;;2.40;1.48;;;;;;;17.79;40.74;100419.59;5054605;28;20056;-85
2021/12/11 11:14:30;;;;;;;4.68;1.95;;;;;;;17.81;40.92;100411.41;5055621;28;20055;-84
2021/12/11 11:17:02;;;;;;;3.13;1.88;;;;;;;17.81;41.08;100419.44;5056199;28;20049;-85
2021/12/11 11:19:30;;;;;;;3.42;1.50;;;;;;;17.82;41.31;100414.94;5056226;28;20053;-85
2021/12/11 11:22:03;;;;;;;4.53;1.80;;;;;;;17.82;41.35;100421.13;5055287;28;20041;-85
2021/12/11 11:24:36;;;;;;;2.78;1.63;;;;;;;17.81;41.00;100427.47;5053859;28;20517;-92
2021/12/11 11:27:04;;;;;;;;;;;;;;;17.82;40.74;100429.16;5055039;28;20396;-87
2021/12/11 11:29:34;;;;;;;4.28;1.38;;;;;;;17.83;40.92;100424.69;5055781;28;19921;-86
2021/12/11 11:32:06;;;;;;;2.78;1.55;;;;;;;17.84;41.02;100431.72;5054353;28;20511;-86
2021/12/11 11:34:40;;;;;;;3.03;1.75;;;;;;;17.84;41.11;100437.09;5055805;28;20049;-88
2021/12/11 11:37:11;;;;;;;3.40;1.50;;;;;;;17.83;41.24;100433.56;5087729;28;20044;-86
2021/12/11 11:39:39;;;;;;;5.22;1.60;;;;;;;17.84;41.21;100437.09;5053693;28;20060;-84
2021/12/11 11:42:12;;;;;;;2.22;1.33;;;;;;;17.86;41.22;100440.47;5053656;28;20057;-86
2021/12/11 11:44:43;;;;;;;2.63;1.50;;;;;;;17.86;43.12;100440.47;5054577;28;20067;-87
2021/12/11 11:47:12;;;;;;;2.80;2.03;;;;;;;17.82;40.42;100434.50;5053548;28;20381;-86
2021/12/11 11:49:41;;;;;;;3.90;2.50;;;;;;;17.75;39.86;100439.56;5053499;28;20488;-87
2021/12/11 11:52:12;;;;;;;4.38;2.70;;;;;;;17.68;37.83;100445.53;5054735;28;20040;-88
2021/12/11 11:54:43;;;;;;;3.35;2.78;;;;;;;17.60;37.82;100443.50;5054456;28;20048;-88
2021/12/11 11:57:19;;;;;;;3.28;2.70;;;;;;;17.51;37.51;100437.13;5054341;28;20049;-88
2021/12/11 11:59:50;;;;;;;3.97;3.10;;;;;;;17.46;37.52;100449.16;5054418;28;20132;-87
2021/12/11 12:02:22;;;;;;;3.60;2.83;;;;;;;17.38;37.19;100438.25;5054546;28;20063;-89
2021/12/11 12:04:52;;;;;;;4.45;3.28;;;;;;;17.32;36.78;100436.94;5052803;28;20056;-89
2021/12/11 12:07:25;;;;;;;5.18;3.15;;;;;;;17.26;37.36;100442.84;5052836;28;20044;-94
2021/12/11 12:09:56;;;;;;;3.05;1.83;;;;;;;17.30;43.28;100436.25;5054139;28;20480;-85
2021/12/11 12:12:23;;;;;;;4.53;2.10;;;;;;;17.35;44.17;100441.22;5054374;28;20052;-86
2021/12/11 12:14:53;;;;;;;5.07;2.08;;;;;;;17.39;44.73;100438.16;5054229;28;20048;-86
2021/12/11 12:17:23;;;;;;;4.20;2.05;;;;;;;17.43;44.92;100446.78;5054505;28;20048;-87